International Falls, MN

1:03 AM CDT on August 23, 2017 (GMT -0500)
Wayside Lane | | Change Station

Elev 1115 ft 48.60 °N, 93.42 °W | Updated 1 minute ago

Clear
Clear
50.8 °F
Feels Like 50.8 °F
N
0.0
Wind Variable Wind from SW
Gusts 0.0 mph

Today
High -- | Low -- °F
--% Chance of Precip.
Yesterday
High -- | Low -- °F
Precip. -- in
Pressure 30.04 in
Visibility 10.0 miles
Clouds Clear
Dew Point 48 °F
Humidity 89%
Rainfall 0.00 in
Snow Depth Not available.
6:18 AM 8:12 PM
Waxing Crescent, 3% visible
METAR KINL 230455Z AUTO 29004KT 10SM CLR 10/08 A3002 RMK AO2 SLP170 T01000083
Pressure 30.04 in
Visibility 10.0 miles
Clouds Clear
Dew Point 48 °F
Humidity 89%
Rainfall 0.00 in
Snow Depth Not available.
6:18 AM 8:12 PM
Waxing Crescent, 3% visible
METAR KINL 230455Z AUTO 29004KT 10SM CLR 10/08 A3002 RMK AO2 SLP170 T01000083

Get Severe Weather Alerts

Thanks for signing up!

Be on the lookout for a verification email in your inbox.

You'll start receiving the daily forecast at 6 AM.

×

10-Day Weather Forecast

Almanac

Astronomy

Aug. 23, 2017 Rise Set
Actual Time
Civil Twilight
Nautical Twilight
Astronomical Twilight
Moon
Length of Visible Light
Length of Day
Tomorrow will be .
, % of the Moon is Illuminated

Today's Extremes

State Highs State Lows

Community

WunderPhotos

Category 6

Welcome to Category 6. This is the collective home for Weather Underground's featured writeups by Dr. Jeff Masters (right), Bob Henson (left), Chris Burt, and other regular contributors.

Nearby

Air Quality

  Air Quality AQ Index Pollutant
Not available.

Snow Depth

Station Depth Elevation

Earthquake Activity

City Distance Mag. Time & Date
Minimum magnitude displayed is 2.5.

Coastal Water Temperatures

Place Temperature

Stations

Nearby Weather Stations

Station Location Temp. Windchill Dew Point Humidity Wind Precip. Elev Updated Type
                   

Watches & Warnings

There are currently no watches in effect.